sensor_id;sensor_type;location;lat;lon;timestamp;P1;durP1;ratioP1;P2;durP2;ratioP2
60318;SDS011;46163;52.306;5.634;2023-06-10T00:00:12;5.07;;;2.90;;
60318;SDS011;46163;52.306;5.634;2023-06-10T00:02:41;4.03;;;2.63;;
60318;SDS011;46163;52.306;5.634;2023-06-10T00:05:09;3.30;;;2.65;;
60318;SDS011;46163;52.306;5.634;2023-06-10T00:07:34;5.97;;;2.83;;
60318;SDS011;46163;52.306;5.634;2023-06-10T00:10:04;5.95;;;2.80;;
60318;SDS011;46163;52.306;5.634;2023-06-10T00:12:31;5.53;;;2.83;;
60318;SDS011;46163;52.306;5.634;2023-06-10T00:15:02;4.80;;;2.58;;
60318;SDS011;46163;52.306;5.634;2023-06-10T00:17:29;5.57;;;2.58;;
60318;SDS011;46163;52.306;5.634;2023-06-10T00:19:55;5.68;;;3.40;;
60318;SDS011;46163;52.306;5.634;2023-06-10T00:22:22;4.00;;;2.72;;
60318;SDS011;46163;52.306;5.634;2023-06-10T00:24:49;3.30;;;2.53;;
60318;SDS011;46163;52.306;5.634;2023-06-10T00:27:15;2.95;;;2.42;;
60318;SDS011;46163;52.306;5.634;2023-06-10T00:29:41;9.43;;;3.00;;
60318;SDS011;46163;52.306;5.634;2023-06-10T00:32:07;3.90;;;2.90;;
60318;SDS011;46163;52.306;5.634;2023-06-10T00:34:32;3.90;;;2.75;;
60318;SDS011;46163;52.306;5.634;2023-06-10T00:36:59;5.53;;;2.83;;
60318;SDS011;46163;52.306;5.634;2023-06-10T00:39:25;7.10;;;2.80;;
60318;SDS011;46163;52.306;5.634;2023-06-10T00:41:50;5.28;;;2.80;;
60318;SDS011;46163;52.306;5.634;2023-06-10T00:44:15;5.03;;;2.97;;
60318;SDS011;46163;52.306;5.634;2023-06-10T00:46:41;3.92;;;2.78;;
60318;SDS011;46163;52.306;5.634;2023-06-10T00:49:07;4.95;;;2.78;;
60318;SDS011;46163;52.306;5.634;2023-06-10T00:51:34;5.22;;;2.75;;
60318;SDS011;46163;52.306;5.634;2023-06-10T00:54:01;4.30;;;2.75;;
60318;SDS011;46163;52.306;5.634;2023-06-10T00:56:27;5.10;;;2.85;;
60318;SDS011;46163;52.306;5.634;2023-06-10T00:58:53;4.82;;;2.60;;
60318;SDS011;46163;52.306;5.634;2023-06-10T01:01:19;5.15;;;2.80;;
60318;SDS011;46163;52.306;5.634;2023-06-10T01:03:45;4.57;;;2.92;;
60318;SDS011;46163;52.306;5.634;2023-06-10T01:06:19;5.07;;;3.17;;
60318;SDS011;46163;52.306;5.634;2023-06-10T01:09:06;4.18;;;2.70;;
60318;SDS011;46163;52.306;5.634;2023-06-10T01:11:45;5.20;;;2.97;;
60318;SDS011;46163;52.306;5.634;2023-06-10T01:14:17;3.92;;;2.83;;
60318;SDS011;46163;52.306;5.634;2023-06-10T01:16:43;5.35;;;3.42;;
60318;SDS011;46163;52.306;5.634;2023-06-10T01:19:11;5.35;;;2.97;;
60318;SDS011;46163;52.306;5.634;2023-06-10T01:21:37;3.35;;;2.83;;
60318;SDS011;46163;52.306;5.634;2023-06-10T01:24:04;5.03;;;3.15;;
60318;SDS011;46163;52.306;5.634;2023-06-10T01:26:33;4.05;;;3.10;;
60318;SDS011;46163;52.306;5.634;2023-06-10T01:29:07;3.50;;;2.70;;
60318;SDS011;46163;52.306;5.634;2023-06-10T01:31:41;3.73;;;2.73;;
60318;SDS011;46163;52.306;5.634;2023-06-10T01:34:13;3.50;;;2.75;;
60318;SDS011;46163;52.306;5.634;2023-06-10T01:36:41;4.72;;;3.00;;
60318;SDS011;46163;52.306;5.634;2023-06-10T01:39:11;5.95;;;2.97;;
60318;SDS011;46163;52.306;5.634;2023-06-10T01:41:38;3.80;;;3.05;;
60318;SDS011;46163;52.306;5.634;2023-06-10T01:44:04;5.95;;;3.15;;
60318;SDS011;46163;52.306;5.634;2023-06-10T01:46:30;4.95;;;2.85;;
60318;SDS011;46163;52.306;5.634;2023-06-10T01:48:56;6.05;;;2.80;;
60318;SDS011;46163;52.306;5.634;2023-06-10T01:51:21;5.93;;;2.97;;
60318;SDS011;46163;52.306;5.634;2023-06-10T01:53:47;5.93;;;3.03;;
60318;SDS011;46163;52.306;5.634;2023-06-10T01:56:12;5.50;;;2.88;;
60318;SDS011;46163;52.306;5.634;2023-06-10T01:58:45;3.85;;;2.80;;
60318;SDS011;46163;52.306;5.634;2023-06-10T02:01:11;5.55;;;2.97;;
60318;SDS011;46163;52.306;5.634;2023-06-10T02:03:36;6.47;;;3.65;;
60318;SDS011;46163;52.306;5.634;2023-06-10T02:06:02;3.83;;;2.90;;
60318;SDS011;46163;52.306;5.634;2023-06-10T02:08:28;4.35;;;2.97;;
60318;SDS011;46163;52.306;5.634;2023-06-10T02:10:54;7.20;;;3.38;;
60318;SDS011;46163;52.306;5.634;2023-06-10T02:13:19;7.85;;;2.97;;
60318;SDS011;46163;52.306;5.634;2023-06-10T02:15:45;3.13;;;2.70;;
60318;SDS011;46163;52.306;5.634;2023-06-10T02:18:11;4.40;;;3.00;;
60318;SDS011;46163;52.306;5.634;2023-06-10T02:20:37;8.70;;;3.00;;
60318;SDS011;46163;52.306;5.634;2023-06-10T02:23:03;4.32;;;3.00;;
60318;SDS011;46163;52.306;5.634;2023-06-10T02:25:28;6.15;;;3.03;;
60318;SDS011;46163;52.306;5.634;2023-06-10T02:27:54;4.55;;;2.88;;
60318;SDS011;46163;52.306;5.634;2023-06-10T02:32:47;7.60;;;3.30;;
60318;SDS011;46163;52.306;5.634;2023-06-10T02:35:15;5.95;;;2.90;;
60318;SDS011;46163;52.306;5.634;2023-06-10T02:37:42;4.88;;;2.97;;
60318;SDS011;46163;52.306;5.634;2023-06-10T02:40:10;4.90;;;3.10;;
60318;SDS011;46163;52.306;5.634;2023-06-10T02:42:36;4.22;;;3.15;;
60318;SDS011;46163;52.306;5.634;2023-06-10T02:45:02;5.95;;;3.50;;
60318;SDS011;46163;52.306;5.634;2023-06-10T02:47:28;7.15;;;3.30;;
60318;SDS011;46163;52.306;5.634;2023-06-10T02:49:53;8.45;;;3.28;;
60318;SDS011;46163;52.306;5.634;2023-06-10T02:52:19;5.45;;;2.88;;
60318;SDS011;46163;52.306;5.634;2023-06-10T02:54:45;4.65;;;3.10;;
60318;SDS011;46163;52.306;5.634;2023-06-10T02:57:11;6.15;;;3.28;;
60318;SDS011;46163;52.306;5.634;2023-06-10T02:59:38;6.93;;;3.65;;
60318;SDS011;46163;52.306;5.634;2023-06-10T03:02:05;4.72;;;3.15;;
60318;SDS011;46163;52.306;5.634;2023-06-10T03:04:37;5.30;;;3.20;;
60318;SDS011;46163;52.306;5.634;2023-06-10T03:07:03;8.02;;;3.40;;
60318;SDS011;46163;52.306;5.634;2023-06-10T03:09:32;5.80;;;3.00;;
60318;SDS011;46163;52.306;5.634;2023-06-10T03:11:58;4.45;;;3.00;;
60318;SDS011;46163;52.306;5.634;2023-06-10T03:14:24;5.00;;;3.03;;
60318;SDS011;46163;52.306;5.634;2023-06-10T03:16:50;8.80;;;2.80;;
60318;SDS011;46163;52.306;5.634;2023-06-10T03:19:15;5.78;;;3.38;;
60318;SDS011;46163;52.306;5.634;2023-06-10T03:21:43;5.47;;;3.33;;
60318;SDS011;46163;52.306;5.634;2023-06-10T03:24:09;4.25;;;3.10;;
60318;SDS011;46163;52.306;5.634;2023-06-10T03:26:36;3.80;;;3.00;;
60318;SDS011;46163;52.306;5.634;2023-06-10T03:29:01;6.32;;;3.28;;
60318;SDS011;46163;52.306;5.634;2023-06-10T03:31:27;4.95;;;3.17;;
60318;SDS011;46163;52.306;5.634;2023-06-10T03:33:52;4.20;;;3.13;;
60318;SDS011;46163;52.306;5.634;2023-06-10T03:36:18;4.85;;;3.17;;
60318;SDS011;46163;52.306;5.634;2023-06-10T03:38:43;6.97;;;3.20;;
60318;SDS011;46163;52.306;5.634;2023-06-10T03:41:11;4.40;;;2.85;;
60318;SDS011;46163;52.306;5.634;2023-06-10T03:43:37;8.40;;;3.40;;
60318;SDS011;46163;52.306;5.634;2023-06-10T03:46:03;7.60;;;3.55;;
60318;SDS011;46163;52.306;5.634;2023-06-10T03:48:29;5.22;;;3.33;;
60318;SDS011;46163;52.306;5.634;2023-06-10T03:50:55;4.20;;;3.00;;
60318;SDS011;46163;52.306;5.634;2023-06-10T03:53:26;4.03;;;2.90;;
60318;SDS011;46163;52.306;5.634;2023-06-10T03:58:48;5.25;;;3.10;;
60318;SDS011;46163;52.306;5.634;2023-06-10T04:01:43;5.25;;;3.40;;
60318;SDS011;46163;52.306;5.634;2023-06-10T04:04:24;4.03;;;3.15;;
60318;SDS011;46163;52.306;5.634;2023-06-10T04:47:04;5.50;;;3.50;;
60318;SDS011;46163;52.306;5.634;2023-06-10T05:10:53;4.60;;;3.20;;
60318;SDS011;46163;52.306;5.634;2023-06-10T05:14:02;5.20;;;3.00;;
60318;SDS011;46163;52.306;5.634;2023-06-10T05:26:57;4.60;;;3.05;;
60318;SDS011;46163;52.306;5.634;2023-06-10T05:32:57;4.00;;;3.10;;
60318;SDS011;46163;52.306;5.634;2023-06-10T05:35:47;11.18;;;3.13;;
60318;SDS011;46163;52.306;5.634;2023-06-10T05:38:25;5.43;;;3.40;;
60318;SDS011;46163;52.306;5.634;2023-06-10T05:47:22;4.97;;;3.15;;
60318;SDS011;46163;52.306;5.634;2023-06-10T05:49:47;7.32;;;3.70;;
60318;SDS011;46163;52.306;5.634;2023-06-10T05:52:14;5.35;;;3.22;;
60318;SDS011;46163;52.306;5.634;2023-06-10T05:54:40;4.68;;;3.30;;
60318;SDS011;46163;52.306;5.634;2023-06-10T05:57:06;5.25;;;3.35;;
60318;SDS011;46163;52.306;5.634;2023-06-10T05:59:31;4.03;;;2.80;;
60318;SDS011;46163;52.306;5.634;2023-06-10T06:01:58;5.85;;;3.30;;
60318;SDS011;46163;52.306;5.634;2023-06-10T06:04:23;6.85;;;3.35;;
60318;SDS011;46163;52.306;5.634;2023-06-10T06:06:49;5.88;;;3.50;;
60318;SDS011;46163;52.306;5.634;2023-06-10T06:09:15;6.47;;;3.20;;
60318;SDS011;46163;52.306;5.634;2023-06-10T06:11:40;7.18;;;3.30;;
60318;SDS011;46163;52.306;5.634;2023-06-10T06:14:06;4.90;;;3.15;;
60318;SDS011;46163;52.306;5.634;2023-06-10T06:16:32;4.85;;;3.08;;
60318;SDS011;46163;52.306;5.634;2023-06-10T06:18:58;4.85;;;3.30;;
60318;SDS011;46163;52.306;5.634;2023-06-10T06:21:24;6.88;;;3.25;;
60318;SDS011;46163;52.306;5.634;2023-06-10T06:23:49;4.25;;;3.00;;
60318;SDS011;46163;52.306;5.634;2023-06-10T06:26:15;3.85;;;2.90;;
60318;SDS011;46163;52.306;5.634;2023-06-10T06:28:41;4.30;;;3.10;;
60318;SDS011;46163;52.306;5.634;2023-06-10T06:31:06;7.95;;;3.30;;
60318;SDS011;46163;52.306;5.634;2023-06-10T06:33:32;3.35;;;2.90;;
60318;SDS011;46163;52.306;5.634;2023-06-10T06:35:58;5.90;;;3.30;;
60318;SDS011;46163;52.306;5.634;2023-06-10T06:38:26;5.65;;;3.38;;
60318;SDS011;46163;52.306;5.634;2023-06-10T06:40:51;4.75;;;3.03;;
60318;SDS011;46163;52.306;5.634;2023-06-10T06:43:17;5.47;;;3.15;;
60318;SDS011;46163;52.306;5.634;2023-06-10T06:45:44;5.70;;;2.80;;
60318;SDS011;46163;52.306;5.634;2023-06-10T06:48:10;4.65;;;2.78;;
60318;SDS011;46163;52.306;5.634;2023-06-10T06:50:36;5.18;;;3.30;;
60318;SDS011;46163;52.306;5.634;2023-06-10T06:53:03;6.43;;;3.35;;
60318;SDS011;46163;52.306;5.634;2023-06-10T06:55:29;5.57;;;3.22;;
60318;SDS011;46163;52.306;5.634;2023-06-10T06:57:54;6.57;;;3.05;;
60318;SDS011;46163;52.306;5.634;2023-06-10T07:00:20;5.22;;;3.15;;
60318;SDS011;46163;52.306;5.634;2023-06-10T07:02:46;5.97;;;3.30;;
60318;SDS011;46163;52.306;5.634;2023-06-10T07:05:12;6.57;;;3.03;;
60318;SDS011;46163;52.306;5.634;2023-06-10T07:07:37;6.57;;;3.03;;
60318;SDS011;46163;52.306;5.634;2023-06-10T07:10:03;4.85;;;2.95;;
60318;SDS011;46163;52.306;5.634;2023-06-10T07:12:29;4.70;;;2.83;;
60318;SDS011;46163;52.306;5.634;2023-06-10T07:14:54;3.35;;;2.58;;
60318;SDS011;46163;52.306;5.634;2023-06-10T07:17:20;3.97;;;2.72;;
60318;SDS011;46163;52.306;5.634;2023-06-10T07:19:48;5.53;;;2.50;;
60318;SDS011;46163;52.306;5.634;2023-06-10T07:22:13;4.45;;;2.65;;
60318;SDS011;46163;52.306;5.634;2023-06-10T07:24:39;4.18;;;2.50;;
60318;SDS011;46163;52.306;5.634;2023-06-10T07:27:06;5.75;;;2.88;;
60318;SDS011;46163;52.306;5.634;2023-06-10T07:29:32;4.05;;;2.33;;
60318;SDS011;46163;52.306;5.634;2023-06-10T07:31:58;5.40;;;2.30;;
60318;SDS011;46163;52.306;5.634;2023-06-10T07:34:23;7.55;;;2.40;;
60318;SDS011;46163;52.306;5.634;2023-06-10T07:36:49;4.53;;;2.60;;
60318;SDS011;46163;52.306;5.634;2023-06-10T07:39:16;3.20;;;2.15;;
60318;SDS011;46163;52.306;5.634;2023-06-10T07:41:42;3.33;;;2.35;;
60318;SDS011;46163;52.306;5.634;2023-06-10T07:44:07;4.18;;;2.40;;
60318;SDS011;46163;52.306;5.634;2023-06-10T07:46:33;3.43;;;2.40;;
60318;SDS011;46163;52.306;5.634;2023-06-10T07:48:58;4.20;;;2.63;;
60318;SDS011;46163;52.306;5.634;2023-06-10T07:51:23;6.47;;;2.23;;
60318;SDS011;46163;52.306;5.634;2023-06-10T07:53:49;2.97;;;2.30;;
60318;SDS011;46163;52.306;5.634;2023-06-10T07:56:17;3.13;;;2.15;;
60318;SDS011;46163;52.306;5.634;2023-06-10T07:58:42;4.87;;;2.53;;
60318;SDS011;46163;52.306;5.634;2023-06-10T08:01:08;6.20;;;2.50;;
60318;SDS011;46163;52.306;5.634;2023-06-10T08:03:34;4.17;;;2.00;;
60318;SDS011;46163;52.306;5.634;2023-06-10T08:05:59;4.83;;;2.10;;
60318;SDS011;46163;52.306;5.634;2023-06-10T08:08:25;4.07;;;2.30;;
60318;SDS011;46163;52.306;5.634;2023-06-10T08:10:50;2.80;;;2.10;;
60318;SDS011;46163;52.306;5.634;2023-06-10T08:13:16;4.80;;;2.30;;
60318;SDS011;46163;52.306;5.634;2023-06-10T08:15:41;3.30;;;2.37;;
60318;SDS011;46163;52.306;5.634;2023-06-10T08:18:07;3.83;;;2.40;;
60318;SDS011;46163;52.306;5.634;2023-06-10T08:20:32;4.60;;;2.30;;
60318;SDS011;46163;52.306;5.634;2023-06-10T08:22:58;4.50;;;2.17;;
60318;SDS011;46163;52.306;5.634;2023-06-10T08:25:23;4.63;;;2.50;;
60318;SDS011;46163;52.306;5.634;2023-06-10T08:27:50;3.88;;;2.45;;
60318;SDS011;46163;52.306;5.634;2023-06-10T08:30:17;4.45;;;2.13;;
60318;SDS011;46163;52.306;5.634;2023-06-10T08:32:43;3.92;;;2.30;;
60318;SDS011;46163;52.306;5.634;2023-06-10T08:35:11;4.27;;;2.30;;
60318;SDS011;46163;52.306;5.634;2023-06-10T08:37:37;3.53;;;2.40;;
60318;SDS011;46163;52.306;5.634;2023-06-10T08:40:05;4.68;;;1.88;;
60318;SDS011;46163;52.306;5.634;2023-06-10T08:42:39;3.85;;;2.13;;
60318;SDS011;46163;52.306;5.634;2023-06-10T08:45:08;4.05;;;2.28;;
60318;SDS011;46163;52.306;5.634;2023-06-10T08:47:42;4.00;;;2.33;;
60318;SDS011;46163;52.306;5.634;2023-06-10T08:50:11;3.67;;;2.45;;
60318;SDS011;46163;52.306;5.634;2023-06-10T08:52:37;5.25;;;2.00;;
60318;SDS011;46163;52.306;5.634;2023-06-10T08:57:45;4.03;;;2.20;;
60318;SDS011;46163;52.306;5.634;2023-06-10T09:00:11;3.05;;;2.10;;
60318;SDS011;46163;52.306;5.634;2023-06-10T09:02:43;4.57;;;2.00;;
60318;SDS011;46163;52.306;5.634;2023-06-10T09:05:09;2.72;;;2.10;;
60318;SDS011;46163;52.306;5.634;2023-06-10T09:07:35;2.40;;;2.10;;
60318;SDS011;46163;52.306;5.634;2023-06-10T09:10:01;6.47;;;2.17;;
60318;SDS011;46163;52.306;5.634;2023-06-10T09:12:32;4.80;;;2.20;;
60318;SDS011;46163;52.306;5.634;2023-06-10T09:15:03;3.83;;;2.20;;
60318;SDS011;46163;52.306;5.634;2023-06-10T09:17:29;3.72;;;2.33;;
60318;SDS011;46163;52.306;5.634;2023-06-10T09:19:54;3.13;;;2.17;;
60318;SDS011;46163;52.306;5.634;2023-06-10T09:22:22;3.05;;;2.10;;
60318;SDS011;46163;52.306;5.634;2023-06-10T09:27:14;4.23;;;2.20;;
60318;SDS011;46163;52.306;5.634;2023-06-10T09:29:51;4.10;;;2.30;;
60318;SDS011;46163;52.306;5.634;2023-06-10T09:32:18;3.65;;;2.08;;
60318;SDS011;46163;52.306;5.634;2023-06-10T09:34:49;5.25;;;2.15;;
60318;SDS011;46163;52.306;5.634;2023-06-10T09:37:25;3.35;;;2.10;;
60318;SDS011;46163;52.306;5.634;2023-06-10T09:40:01;4.18;;;2.25;;
60318;SDS011;46163;52.306;5.634;2023-06-10T09:42:34;3.83;;;2.08;;
60318;SDS011;46163;52.306;5.634;2023-06-10T09:45:01;4.05;;;2.40;;
60318;SDS011;46163;52.306;5.634;2023-06-10T09:47:28;2.30;;;2.05;;
60318;SDS011;46163;52.306;5.634;2023-06-10T09:49:54;2.58;;;2.00;;
60318;SDS011;46163;52.306;5.634;2023-06-10T09:55:43;2.97;;;1.90;;
60318;SDS011;46163;52.306;5.634;2023-06-10T09:58:14;5.22;;;2.33;;
60318;SDS011;46163;52.306;5.634;2023-06-10T10:00:40;4.40;;;2.33;;
60318;SDS011;46163;52.306;5.634;2023-06-10T10:03:07;4.50;;;2.35;;
60318;SDS011;46163;52.306;5.634;2023-06-10T10:05:33;2.37;;;1.93;;
60318;SDS011;46163;52.306;5.634;2023-06-10T10:07:59;3.33;;;2.07;;
60318;SDS011;46163;52.306;5.634;2023-06-10T10:10:24;2.97;;;2.00;;
60318;SDS011;46163;52.306;5.634;2023-06-10T10:12:51;4.30;;;2.27;;
60318;SDS011;46163;52.306;5.634;2023-06-10T10:15:21;7.22;;;2.22;;
60318;SDS011;46163;52.306;5.634;2023-06-10T10:17:49;2.95;;;2.08;;
60318;SDS011;46163;52.306;5.634;2023-06-10T10:20:24;6.53;;;2.25;;
60318;SDS011;46163;52.306;5.634;2023-06-10T10:22:52;3.08;;;2.10;;
60318;SDS011;46163;52.306;5.634;2023-06-10T10:25:27;3.88;;;2.33;;
60318;SDS011;46163;52.306;5.634;2023-06-10T10:27:56;2.83;;;1.98;;
60318;SDS011;46163;52.306;5.634;2023-06-10T10:30:28;3.53;;;1.90;;
60318;SDS011;46163;52.306;5.634;2023-06-10T10:33:05;3.67;;;2.10;;
60318;SDS011;46163;52.306;5.634;2023-06-10T10:35:34;4.03;;;2.20;;
60318;SDS011;46163;52.306;5.634;2023-06-10T10:44:23;4.00;;;2.28;;
60318;SDS011;46163;52.306;5.634;2023-06-10T10:46:55;4.28;;;2.10;;
60318;SDS011;46163;52.306;5.634;2023-06-10T10:50:22;3.78;;;2.40;;
60318;SDS011;46163;52.306;5.634;2023-06-10T10:53:08;3.85;;;2.20;;
60318;SDS011;46163;52.306;5.634;2023-06-10T10:55:35;3.28;;;2.13;;
60318;SDS011;46163;52.306;5.634;2023-06-10T10:58:07;6.80;;;2.63;;
60318;SDS011;46163;52.306;5.634;2023-06-10T11:00:41;3.05;;;2.30;;
60318;SDS011;46163;52.306;5.634;2023-06-10T11:03:27;3.22;;;2.42;;
60318;SDS011;46163;52.306;5.634;2023-06-10T11:05:56;4.82;;;2.72;;
60318;SDS011;46163;52.306;5.634;2023-06-10T11:10:54;4.03;;;2.42;;
60318;SDS011;46163;52.306;5.634;2023-06-10T11:13:21;4.80;;;2.67;;
60318;SDS011;46163;52.306;5.634;2023-06-10T11:15:49;3.97;;;2.50;;
60318;SDS011;46163;52.306;5.634;2023-06-10T11:21:19;4.38;;;2.28;;
60318;SDS011;46163;52.306;5.634;2023-06-10T11:23:44;6.93;;;2.72;;
60318;SDS011;46163;52.306;5.634;2023-06-10T11:31:21;5.80;;;2.58;;
60318;SDS011;46163;52.306;5.634;2023-06-10T11:36:14;3.65;;;2.20;;
60318;SDS011;46163;52.306;5.634;2023-06-10T11:38:42;4.53;;;2.55;;
60318;SDS011;46163;52.306;5.634;2023-06-10T11:41:09;3.10;;;2.42;;
60318;SDS011;46163;52.306;5.634;2023-06-10T11:43:37;4.88;;;2.72;;
60318;SDS011;46163;52.306;5.634;2023-06-10T11:46:09;3.80;;;2.58;;
60318;SDS011;46163;52.306;5.634;2023-06-10T11:48:35;4.30;;;2.33;;
60318;SDS011;46163;52.306;5.634;2023-06-10T11:51:05;5.72;;;2.95;;
60318;SDS011;46163;52.306;5.634;2023-06-10T11:53:31;4.18;;;2.50;;
60318;SDS011;46163;52.306;5.634;2023-06-10T11:55:57;2.83;;;2.50;;
60318;SDS011;46163;52.306;5.634;2023-06-10T11:58:23;3.60;;;2.40;;
60318;SDS011;46163;52.306;5.634;2023-06-10T12:00:52;3.40;;;2.35;;
60318;SDS011;46163;52.306;5.634;2023-06-10T12:03:21;5.03;;;2.55;;
60318;SDS011;46163;52.306;5.634;2023-06-10T12:08:26;3.47;;;2.50;;
60318;SDS011;46163;52.306;5.634;2023-06-10T12:10:52;4.65;;;2.60;;
60318;SDS011;46163;52.306;5.634;2023-06-10T12:13:18;4.25;;;2.70;;
60318;SDS011;46163;52.306;5.634;2023-06-10T12:15:44;4.05;;;2.72;;
60318;SDS011;46163;52.306;5.634;2023-06-10T12:18:19;3.03;;;2.38;;
60318;SDS011;46163;52.306;5.634;2023-06-10T12:20:46;4.88;;;2.60;;
60318;SDS011;46163;52.306;5.634;2023-06-10T12:23:12;5.45;;;2.75;;
60318;SDS011;46163;52.306;5.634;2023-06-10T12:25:38;6.28;;;2.90;;
60318;SDS011;46163;52.306;5.634;2023-06-10T12:28:05;4.13;;;2.88;;
60318;SDS011;46163;52.306;5.634;2023-06-10T12:30:31;3.88;;;2.50;;
60318;SDS011;46163;52.306;5.634;2023-06-10T12:32:57;5.78;;;2.90;;
60318;SDS011;46163;52.306;5.634;2023-06-10T12:35:26;5.50;;;2.75;;
60318;SDS011;46163;52.306;5.634;2023-06-10T12:42:58;5.50;;;2.60;;
60318;SDS011;46163;52.306;5.634;2023-06-10T12:45:28;4.70;;;2.58;;
60318;SDS011;46163;52.306;5.634;2023-06-10T12:48:03;6.00;;;2.72;;
60318;SDS011;46163;52.306;5.634;2023-06-10T12:50:34;3.67;;;2.33;;
60318;SDS011;46163;52.306;5.634;2023-06-10T12:53:02;2.85;;;2.45;;
60318;SDS011;46163;52.306;5.634;2023-06-10T12:55:28;3.00;;;2.30;;
60318;SDS011;46163;52.306;5.634;2023-06-10T12:57:54;6.38;;;2.67;;
60318;SDS011;46163;52.306;5.634;2023-06-10T13:00:21;6.60;;;2.50;;
60318;SDS011;46163;52.306;5.634;2023-06-10T13:02:48;4.95;;;2.60;;
60318;SDS011;46163;52.306;5.634;2023-06-10T13:05:15;4.97;;;2.67;;
60318;SDS011;46163;52.306;5.634;2023-06-10T13:07:41;3.67;;;2.20;;
60318;SDS011;46163;52.306;5.634;2023-06-10T13:10:10;3.88;;;2.65;;
60318;SDS011;46163;52.306;5.634;2023-06-10T13:12:37;2.83;;;2.53;;
60318;SDS011;46163;52.306;5.634;2023-06-10T13:15:03;4.30;;;2.38;;
60318;SDS011;46163;52.306;5.634;2023-06-10T13:17:29;3.78;;;2.33;;
60318;SDS011;46163;52.306;5.634;2023-06-10T13:19:55;4.13;;;2.70;;
60318;SDS011;46163;52.306;5.634;2023-06-10T13:22:21;5.07;;;2.50;;
60318;SDS011;46163;52.306;5.634;2023-06-10T13:24:46;3.55;;;2.25;;
60318;SDS011;46163;52.306;5.634;2023-06-10T13:27:12;3.92;;;2.40;;
60318;SDS011;46163;52.306;5.634;2023-06-10T13:29:39;4.53;;;2.28;;
60318;SDS011;46163;52.306;5.634;2023-06-10T13:32:05;2.72;;;2.40;;
60318;SDS011;46163;52.306;5.634;2023-06-10T13:34:31;3.80;;;2.50;;
60318;SDS011;46163;52.306;5.634;2023-06-10T13:36:57;3.38;;;2.78;;
60318;SDS011;46163;52.306;5.634;2023-06-10T13:39:22;3.97;;;2.40;;
60318;SDS011;46163;52.306;5.634;2023-06-10T13:41:48;3.17;;;2.40;;
60318;SDS011;46163;52.306;5.634;2023-06-10T13:44:14;2.50;;;2.00;;
60318;SDS011;46163;52.306;5.634;2023-06-10T13:46:39;3.97;;;2.45;;
60318;SDS011;46163;52.306;5.634;2023-06-10T13:49:05;2.70;;;2.25;;
60318;SDS011;46163;52.306;5.634;2023-06-10T13:51:30;2.40;;;2.15;;
60318;SDS011;46163;52.306;5.634;2023-06-10T13:53:56;2.75;;;2.28;;
60318;SDS011;46163;52.306;5.634;2023-06-10T13:56:22;3.50;;;2.45;;
60318;SDS011;46163;52.306;5.634;2023-06-10T13:58:48;3.15;;;2.65;;
60318;SDS011;46163;52.306;5.634;2023-06-10T14:01:14;4.38;;;2.38;;
60318;SDS011;46163;52.306;5.634;2023-06-10T14:03:40;3.92;;;2.10;;
60318;SDS011;46163;52.306;5.634;2023-06-10T14:06:05;3.45;;;2.33;;
60318;SDS011;46163;52.306;5.634;2023-06-10T14:08:31;3.30;;;2.35;;
60318;SDS011;46163;52.306;5.634;2023-06-10T14:10:57;5.50;;;2.58;;
60318;SDS011;46163;52.306;5.634;2023-06-10T14:13:23;2.90;;;2.35;;
60318;SDS011;46163;52.306;5.634;2023-06-10T14:15:49;3.55;;;2.30;;
60318;SDS011;46163;52.306;5.634;2023-06-10T14:18:14;2.72;;;2.30;;
60318;SDS011;46163;52.306;5.634;2023-06-10T14:20:40;5.82;;;2.70;;
60318;SDS011;46163;52.306;5.634;2023-06-10T14:23:06;3.13;;;2.25;;
60318;SDS011;46163;52.306;5.634;2023-06-10T14:25:32;3.42;;;2.60;;
60318;SDS011;46163;52.306;5.634;2023-06-10T14:27:57;4.97;;;2.72;;
60318;SDS011;46163;52.306;5.634;2023-06-10T14:30:23;3.58;;;2.42;;
60318;SDS011;46163;52.306;5.634;2023-06-10T14:32:49;2.67;;;2.38;;
60318;SDS011;46163;52.306;5.634;2023-06-10T14:35:14;5.47;;;2.40;;
60318;SDS011;46163;52.306;5.634;2023-06-10T14:37:42;2.55;;;2.13;;
60318;SDS011;46163;52.306;5.634;2023-06-10T14:40:08;5.50;;;3.03;;
60318;SDS011;46163;52.306;5.634;2023-06-10T14:42:34;3.60;;;2.03;;
60318;SDS011;46163;52.306;5.634;2023-06-10T14:44:59;2.85;;;2.20;;
60318;SDS011;46163;52.306;5.634;2023-06-10T14:47:25;3.53;;;2.40;;
60318;SDS011;46163;52.306;5.634;2023-06-10T14:49:53;3.40;;;2.17;;
60318;SDS011;46163;52.306;5.634;2023-06-10T14:52:18;3.65;;;2.40;;
60318;SDS011;46163;52.306;5.634;2023-06-10T14:54:44;3.15;;;2.20;;
60318;SDS011;46163;52.306;5.634;2023-06-10T14:57:09;3.58;;;2.25;;
60318;SDS011;46163;52.306;5.634;2023-06-10T14:59:35;3.70;;;2.25;;
60318;SDS011;46163;52.306;5.634;2023-06-10T15:02:01;2.60;;;2.30;;
60318;SDS011;46163;52.306;5.634;2023-06-10T15:04:27;3.22;;;2.17;;
60318;SDS011;46163;52.306;5.634;2023-06-10T15:06:53;2.50;;;2.03;;
60318;SDS011;46163;52.306;5.634;2023-06-10T15:09:19;3.03;;;2.25;;
60318;SDS011;46163;52.306;5.634;2023-06-10T15:11:45;2.33;;;2.13;;
60318;SDS011;46163;52.306;5.634;2023-06-10T15:14:10;5.45;;;2.50;;
60318;SDS011;46163;52.306;5.634;2023-06-10T15:16:36;2.95;;;2.30;;
60318;SDS011;46163;52.306;5.634;2023-06-10T15:19:01;2.90;;;2.28;;
60318;SDS011;46163;52.306;5.634;2023-06-10T15:21:27;2.85;;;2.20;;
60318;SDS011;46163;52.306;5.634;2023-06-10T15:23:52;5.55;;;2.20;;
60318;SDS011;46163;52.306;5.634;2023-06-10T15:26:18;4.35;;;2.33;;
60318;SDS011;46163;52.306;5.634;2023-06-10T15:28:44;3.20;;;2.25;;
60318;SDS011;46163;52.306;5.634;2023-06-10T15:31:10;4.72;;;2.47;;
60318;SDS011;46163;52.306;5.634;2023-06-10T15:33:35;3.00;;;2.40;;
60318;SDS011;46163;52.306;5.634;2023-06-10T15:36:01;2.40;;;2.20;;
60318;SDS011;46163;52.306;5.634;2023-06-10T15:38:27;4.28;;;2.20;;
60318;SDS011;46163;52.306;5.634;2023-06-10T15:40:52;4.35;;;2.20;;
60318;SDS011;46163;52.306;5.634;2023-06-10T15:43:19;4.95;;;2.10;;
60318;SDS011;46163;52.306;5.634;2023-06-10T15:45:44;3.22;;;2.30;;
60318;SDS011;46163;52.306;5.634;2023-06-10T15:48:10;2.58;;;2.10;;
60318;SDS011;46163;52.306;5.634;2023-06-10T15:50:36;9.85;;;2.40;;
60318;SDS011;46163;52.306;5.634;2023-06-10T15:53:01;3.30;;;2.25;;
60318;SDS011;46163;52.306;5.634;2023-06-10T15:55:27;2.35;;;2.15;;
60318;SDS011;46163;52.306;5.634;2023-06-10T15:57:54;3.35;;;2.30;;
60318;SDS011;46163;52.306;5.634;2023-06-10T16:00:22;2.85;;;2.10;;
60318;SDS011;46163;52.306;5.634;2023-06-10T16:02:47;4.45;;;2.20;;
60318;SDS011;46163;52.306;5.634;2023-06-10T16:05:13;4.15;;;2.10;;
60318;SDS011;46163;52.306;5.634;2023-06-10T16:07:38;2.25;;;2.05;;
60318;SDS011;46163;52.306;5.634;2023-06-10T16:10:05;4.07;;;2.42;;
60318;SDS011;46163;52.306;5.634;2023-06-10T16:12:31;2.38;;;2.10;;
60318;SDS011;46163;52.306;5.634;2023-06-10T16:14:57;2.60;;;2.22;;
60318;SDS011;46163;52.306;5.634;2023-06-10T16:17:22;2.45;;;2.25;;
60318;SDS011;46163;52.306;5.634;2023-06-10T16:19:48;3.55;;;2.20;;
60318;SDS011;46163;52.306;5.634;2023-06-10T16:22:14;3.45;;;2.22;;
60318;SDS011;46163;52.306;5.634;2023-06-10T16:24:39;3.42;;;2.33;;
60318;SDS011;46163;52.306;5.634;2023-06-10T16:27:05;2.22;;;2.00;;
60318;SDS011;46163;52.306;5.634;2023-06-10T16:29:32;3.30;;;2.00;;
60318;SDS011;46163;52.306;5.634;2023-06-10T16:31:58;3.85;;;2.20;;
60318;SDS011;46163;52.306;5.634;2023-06-10T16:34:26;3.35;;;2.45;;
60318;SDS011;46163;52.306;5.634;2023-06-10T16:36:52;4.68;;;2.30;;
60318;SDS011;46163;52.306;5.634;2023-06-10T16:39:17;2.13;;;1.90;;
60318;SDS011;46163;52.306;5.634;2023-06-10T16:41:43;4.45;;;2.10;;
60318;SDS011;46163;52.306;5.634;2023-06-10T16:44:08;3.80;;;2.30;;
60318;SDS011;46163;52.306;5.634;2023-06-10T16:46:34;3.25;;;2.10;;
60318;SDS011;46163;52.306;5.634;2023-06-10T16:48:59;3.10;;;2.05;;
60318;SDS011;46163;52.306;5.634;2023-06-10T16:51:25;2.20;;;2.00;;